createdAt,value
2018-06-02T00:00:06.130Z,978.18
2018-06-02T00:01:05.766Z,978.30
2018-06-02T00:02:05.386Z,978.18
2018-06-02T00:03:05.463Z,978.24
2018-06-02T00:04:05.612Z,978.33
2018-06-02T00:05:05.834Z,978.18
2018-06-02T00:06:05.105Z,978.21
2018-06-02T00:07:05.807Z,978.27
2018-06-02T00:08:05.080Z,978.36
2018-06-02T00:09:05.212Z,978.25
2018-06-02T00:10:05.398Z,978.22
2018-06-02T00:11:05.241Z,978.25
2018-06-02T00:12:05.475Z,978.34
2018-06-02T00:13:05.662Z,978.37
2018-06-02T00:14:05.610Z,978.37
2018-06-02T00:15:05.721Z,978.40
2018-06-02T00:16:05.272Z,978.44
2018-06-02T00:17:05.418Z,978.43
2018-06-02T00:18:05.062Z,978.31
2018-06-02T00:19:05.840Z,978.37
2018-06-02T00:20:05.283Z,978.28
2018-06-02T00:21:05.776Z,978.37
2018-06-02T00:22:05.494Z,978.34
2018-06-02T00:23:05.332Z,978.43
2018-06-02T00:24:05.726Z,978.28
2018-06-02T00:25:05.078Z,978.23
2018-06-02T00:26:06.191Z,978.34
2018-06-02T00:27:05.710Z,978.20
2018-06-02T00:28:05.484Z,978.40
2018-06-02T00:29:05.741Z,978.29
2018-06-02T00:30:05.783Z,978.40
2018-06-02T00:31:05.916Z,978.32
2018-06-02T00:32:05.885Z,978.29
2018-06-02T00:33:05.767Z,978.48
2018-06-02T00:34:05.520Z,978.38
2018-06-02T00:35:05.148Z,978.29
2018-06-02T00:36:05.972Z,978.29
2018-06-02T00:37:05.252Z,978.38
2018-06-02T00:38:06.107Z,978.48
2018-06-02T00:39:05.801Z,978.29
2018-06-02T00:40:05.343Z,978.26
2018-06-02T00:41:05.227Z,978.38
2018-06-02T00:42:06.370Z,978.38
2018-06-02T00:43:10.483Z,978.44
2018-06-02T00:44:05.940Z,978.44
2018-06-02T00:45:05.491Z,978.46
2018-06-02T00:46:05.278Z,978.46
2018-06-02T00:47:11.077Z,978.35
2018-06-02T00:48:05.129Z,978.44
2018-06-02T00:49:05.407Z,978.27
2018-06-02T00:50:05.479Z,978.35
2018-06-02T00:51:05.491Z,978.44
2018-06-02T00:52:05.075Z,978.27
2018-06-02T00:53:05.769Z,978.36
2018-06-02T00:54:05.525Z,978.36
2018-06-02T00:55:05.987Z,978.42
2018-06-02T00:56:05.599Z,978.39
2018-06-02T00:57:06.913Z,978.42
2018-06-02T00:58:05.910Z,978.42
2018-06-02T00:59:05.680Z,978.28
2018-06-02T01:00:05.469Z,978.22
2018-06-02T01:01:05.041Z,978.22
2018-06-02T01:02:05.129Z,978.22
2018-06-02T01:03:05.768Z,978.31
2018-06-02T01:04:05.525Z,978.28
2018-06-02T01:05:05.534Z,978.40
2018-06-02T01:06:05.680Z,978.25
2018-06-02T01:07:05.729Z,978.34
2018-06-02T01:08:05.661Z,978.31
2018-06-02T01:09:05.629Z,978.31
2018-06-02T01:10:05.417Z,978.25
2018-06-02T01:11:05.654Z,978.22
2018-06-02T01:12:05.427Z,978.31
2018-06-02T01:13:06.045Z,978.28
2018-06-02T01:14:05.997Z,978.37
2018-06-02T01:15:05.726Z,978.34
2018-06-02T01:16:05.339Z,978.40
2018-06-02T01:17:05.776Z,978.37
2018-06-02T01:18:05.731Z,978.28
2018-06-02T01:19:05.780Z,978.20
2018-06-02T01:20:05.829Z,978.20
2018-06-02T01:21:05.714Z,978.29
2018-06-02T01:22:05.926Z,978.29
2018-06-02T01:23:05.022Z,978.23
2018-06-02T01:24:10.106Z,978.29
2018-06-02T01:25:05.382Z,978.26
2018-06-02T01:26:05.461Z,978.23
2018-06-02T01:27:05.615Z,978.14
2018-06-02T01:28:05.703Z,978.26
2018-06-02T01:29:05.209Z,978.29
2018-06-02T01:30:05.321Z,978.11
2018-06-02T01:31:05.156Z,978.17
2018-06-02T01:32:10.922Z,978.23
2018-06-02T01:33:10.926Z,978.23
2018-06-02T01:34:05.290Z,978.26
2018-06-02T01:35:05.168Z,978.23
2018-06-02T01:36:05.704Z,978.11
2018-06-02T01:37:10.538Z,978.17
2018-06-02T01:38:05.562Z,978.23
2018-06-02T01:39:05.242Z,978.14
2018-06-02T01:40:06.131Z,978.09
2018-06-02T01:41:05.570Z,978.08
2018-06-02T01:42:05.886Z,978.14
2018-06-02T01:43:05.539Z,978.00
2018-06-02T01:44:05.736Z,978.06
2018-06-02T01:45:05.392Z,978.23
2018-06-02T01:46:05.660Z,978.14
2018-06-02T01:47:06.435Z,978.17
2018-06-02T01:48:05.646Z,978.14
2018-06-02T01:49:05.367Z,978.26
2018-06-02T01:50:06.026Z,978.14
2018-06-02T01:51:05.674Z,978.35
2018-06-02T01:52:05.711Z,978.15
2018-06-02T01:53:05.421Z,978.23
2018-06-02T01:54:05.369Z,978.26
2018-06-02T01:55:05.393Z,978.12
2018-06-02T01:56:05.658Z,978.12
2018-06-02T01:57:05.208Z,978.21
2018-06-02T01:58:05.898Z,978.15
2018-06-02T01:59:05.404Z,978.12
2018-06-02T02:00:04.996Z,978.21
2018-06-02T02:01:05.654Z,978.12
2018-06-02T02:02:05.174Z,978.15
2018-06-02T02:03:05.972Z,978.21
2018-06-02T02:04:05.517Z,978.15
2018-06-02T02:05:05.218Z,978.12
2018-06-02T02:06:05.656Z,978.12
2018-06-02T02:07:05.338Z,978.10
2018-06-02T02:08:05.328Z,978.18
2018-06-02T02:09:05.755Z,978.07
2018-06-02T02:10:05.349Z,978.27
2018-06-02T02:11:05.260Z,978.16
2018-06-02T02:12:05.865Z,978.16
2018-06-02T02:13:05.050Z,978.04
2018-06-02T02:14:05.881Z,978.10
2018-06-02T02:15:05.863Z,978.25
2018-06-02T02:16:05.523Z,978.22
2018-06-02T02:17:05.880Z,978.10
2018-06-02T02:18:05.731Z,978.10
2018-06-02T02:19:05.593Z,978.16
2018-06-02T02:20:05.136Z,978.22
2018-06-02T02:21:05.407Z,978.16
2018-06-02T02:22:06.065Z,978.05
2018-06-02T02:23:05.956Z,978.14
2018-06-02T02:24:05.762Z,978.28
2018-06-02T02:25:05.777Z,978.08
2018-06-02T02:26:05.353Z,978.11
2018-06-02T02:27:05.372Z,978.16
2018-06-02T02:28:05.063Z,978.05
2018-06-02T02:29:05.663Z,978.19
2018-06-02T02:30:06.031Z,978.11
2018-06-02T02:31:05.765Z,978.20
2018-06-02T02:32:05.369Z,978.11
2018-06-02T02:33:05.091Z,977.94
2018-06-02T02:34:05.155Z,978.02
2018-06-02T02:35:06.139Z,978.00
2018-06-02T02:36:05.899Z,978.00
2018-06-02T02:37:05.384Z,978.05
2018-06-02T02:38:05.343Z,978.11
2018-06-02T02:39:05.483Z,977.97
2018-06-02T02:40:05.162Z,978.11
2018-06-02T02:41:05.573Z,978.14
2018-06-02T02:42:05.950Z,978.08
2018-06-02T02:43:05.484Z,977.99
2018-06-02T02:44:05.924Z,978.02
2018-06-02T02:45:06.282Z,978.08
2018-06-02T02:46:05.479Z,977.97
2018-06-02T02:47:05.058Z,978.02
2018-06-02T02:48:05.182Z,978.02
2018-06-02T02:49:05.865Z,977.99
2018-06-02T02:50:05.077Z,978.05
2018-06-02T02:51:05.995Z,978.17
2018-06-02T02:52:05.116Z,978.14
2018-06-02T02:53:05.898Z,978.05
2018-06-02T02:54:05.823Z,978.17
2018-06-02T02:55:05.266Z,978.11
2018-06-02T02:56:05.136Z,978.14
2018-06-02T02:57:05.132Z,978.05
2018-06-02T02:58:05.633Z,978.11
2018-06-02T02:59:05.839Z,978.06
2018-06-02T03:00:05.849Z,978.08
2018-06-02T03:01:04.989Z,978.17
2018-06-02T03:02:05.816Z,978.11
2018-06-02T03:03:10.394Z,978.06
2018-06-02T03:04:05.449Z,978.14
2018-06-02T03:05:05.212Z,978.17
2018-06-02T03:06:06.270Z,978.08
2018-06-02T03:07:05.641Z,978.11
2018-06-02T03:08:05.497Z,978.06
2018-06-02T03:09:05.012Z,978.17
2018-06-02T03:10:05.156Z,978.06
2018-06-02T03:11:05.648Z,977.97
2018-06-02T03:12:05.887Z,978.09
2018-06-02T03:13:05.292Z,978.20
2018-06-02T03:14:05.527Z,978.14
2018-06-02T03:15:05.082Z,978.09
2018-06-02T03:16:10.213Z,978.09
2018-06-02T03:17:05.758Z,978.03
2018-06-02T03:18:05.491Z,978.12
2018-06-02T03:19:05.533Z,978.23
2018-06-02T03:20:05.441Z,978.17
2018-06-02T03:21:05.997Z,978.06
2018-06-02T03:22:05.708Z,978.26
2018-06-02T03:23:05.210Z,978.26
2018-06-02T03:24:05.445Z,978.26
2018-06-02T03:25:05.444Z,978.23
2018-06-02T03:26:05.566Z,978.17
2018-06-02T03:27:05.213Z,978.23
2018-06-02T03:28:05.364Z,978.32
2018-06-02T03:29:05.876Z,978.29
2018-06-02T03:30:06.046Z,978.29
2018-06-02T03:31:05.842Z,978.35
2018-06-02T03:32:06.355Z,978.38
2018-06-02T03:33:05.660Z,978.35
2018-06-02T03:34:05.412Z,978.35
2018-06-02T03:35:05.242Z,978.37
2018-06-02T03:36:05.804Z,978.51
2018-06-02T03:37:05.125Z,978.26
2018-06-02T03:38:05.812Z,978.48
2018-06-02T03:39:05.900Z,978.51
2018-06-02T03:40:05.260Z,978.48
2018-06-02T03:41:06.155Z,978.51
2018-06-02T03:42:05.290Z,978.45
2018-06-02T03:43:05.467Z,978.51
2018-06-02T03:44:05.599Z,978.45
2018-06-02T03:45:05.374Z,978.53
2018-06-02T03:46:10.543Z,978.59
2018-06-02T03:47:05.562Z,978.50
2018-06-02T03:48:05.319Z,978.56
2018-06-02T03:49:05.435Z,978.50
2018-06-02T03:50:10.067Z,978.50
2018-06-02T03:51:05.024Z,978.61
2018-06-02T03:52:05.149Z,978.64
2018-06-02T03:53:06.077Z,978.55
2018-06-02T03:54:05.653Z,978.60
2018-06-02T03:55:05.731Z,978.54
2018-06-02T03:56:05.663Z,978.59
2018-06-02T03:57:05.879Z,978.73
2018-06-02T03:58:05.423Z,978.66
2018-06-02T03:59:05.297Z,978.57
2018-06-02T04:00:05.318Z,978.51
2018-06-02T04:01:05.093Z,978.56
2018-06-02T04:02:06.206Z,978.52
2018-06-02T04:03:05.316Z,978.66
2018-06-02T04:04:05.804Z,978.57
2018-06-02T04:05:05.638Z,978.67
2018-06-02T04:06:05.644Z,978.72
2018-06-02T04:07:05.604Z,978.60
2018-06-02T04:08:05.708Z,978.68
2018-06-02T04:09:05.197Z,978.71
2018-06-02T04:10:05.257Z,978.58
2018-06-02T04:11:06.107Z,978.69
2018-06-02T04:12:05.127Z,978.77
2018-06-02T04:13:05.850Z,978.80
2018-06-02T04:14:05.149Z,978.85
2018-06-02T04:15:05.834Z,978.64
2018-06-02T04:16:05.766Z,978.75
2018-06-02T04:17:05.943Z,978.80
2018-06-02T04:18:05.723Z,978.82
2018-06-02T04:19:05.726Z,978.82
2018-06-02T04:20:05.516Z,978.67
2018-06-02T04:21:05.328Z,978.84
2018-06-02T04:22:05.566Z,978.92
2018-06-02T04:23:05.564Z,978.86
2018-06-02T04:24:05.081Z,978.77
2018-06-02T04:25:05.535Z,978.71
2018-06-02T04:26:05.037Z,978.67
2018-06-02T04:27:05.900Z,978.67
2018-06-02T04:28:05.528Z,978.75
2018-06-02T04:29:05.610Z,978.66
2018-06-02T04:30:06.009Z,978.74
2018-06-02T04:31:06.136Z,978.71
2018-06-02T04:32:05.668Z,978.76
2018-06-02T04:33:05.128Z,978.79
2018-06-02T04:34:05.246Z,978.75
2018-06-02T04:35:05.721Z,978.80
2018-06-02T04:36:05.736Z,978.83
2018-06-02T04:37:05.931Z,978.82
2018-06-02T04:38:05.782Z,978.88
2018-06-02T04:39:05.362Z,978.90
2018-06-02T04:40:05.847Z,978.75
2018-06-02T04:41:05.685Z,978.81
2018-06-02T04:42:05.726Z,978.83
2018-06-02T04:43:05.596Z,978.86
2018-06-02T04:44:05.881Z,978.82
2018-06-02T04:45:05.097Z,978.70
2018-06-02T04:46:05.223Z,978.82
2018-06-02T04:47:05.304Z,978.78
2018-06-02T04:48:05.247Z,978.89
2018-06-02T04:49:05.379Z,978.83
2018-06-02T04:50:05.624Z,978.74
2018-06-02T04:51:05.748Z,978.94
2018-06-02T04:52:05.121Z,979.00
2018-06-02T04:53:05.122Z,978.79
2018-06-02T04:54:05.247Z,978.97
2018-06-02T04:55:06.144Z,978.88
2018-06-02T04:56:05.284Z,978.85
2018-06-02T04:57:05.514Z,978.95
2018-06-02T04:58:05.381Z,978.95
2018-06-02T04:59:05.580Z,978.78
2018-06-02T05:00:05.673Z,978.78
2018-06-02T05:01:05.863Z,978.84
2018-06-02T05:02:05.751Z,978.90
2018-06-02T05:03:05.418Z,978.82
2018-06-02T05:04:05.187Z,978.88
2018-06-02T05:05:05.252Z,978.88
2018-06-02T05:06:05.302Z,978.88
2018-06-02T05:07:05.451Z,978.97
2018-06-02T05:08:10.156Z,978.95
2018-06-02T05:09:06.022Z,978.87
2018-06-02T05:10:05.657Z,978.93
2018-06-02T05:11:05.175Z,978.87
2018-06-02T05:12:05.570Z,978.93
2018-06-02T05:13:05.942Z,978.94
2018-06-02T05:14:06.256Z,979.06
2018-06-02T05:15:06.098Z,979.06
2018-06-02T05:16:05.874Z,979.15
2018-06-02T05:17:05.173Z,979.01
2018-06-02T05:18:05.930Z,979.07
2018-06-02T05:19:05.511Z,978.98
2018-06-02T05:20:05.296Z,979.01
2018-06-02T05:21:05.846Z,979.04
2018-06-02T05:22:06.003Z,978.93
2018-06-02T05:23:05.465Z,979.05
2018-06-02T05:24:05.754Z,979.08
2018-06-02T05:25:06.167Z,979.08
2018-06-02T05:26:05.554Z,979.05
2018-06-02T05:27:05.475Z,979.00
2018-06-02T05:28:05.464Z,979.00
2018-06-02T05:29:05.277Z,979.06
2018-06-02T05:30:05.832Z,979.09
2018-06-02T05:31:05.630Z,979.18
2018-06-02T05:32:05.538Z,979.09
2018-06-02T05:33:05.669Z,979.10
2018-06-02T05:34:05.611Z,979.10
2018-06-02T05:35:05.697Z,979.13
2018-06-02T05:36:05.366Z,979.19
2018-06-02T05:37:05.280Z,979.25
2018-06-02T05:38:05.076Z,979.16
2018-06-02T05:39:10.119Z,979.19
2018-06-02T05:40:05.293Z,979.20
2018-06-02T05:41:05.154Z,979.14
2018-06-02T05:42:06.177Z,979.17
2018-06-02T05:43:05.742Z,979.29
2018-06-02T05:44:05.735Z,979.23
2018-06-02T05:45:05.336Z,979.21
2018-06-02T05:46:05.564Z,979.30
2018-06-02T05:47:05.614Z,979.21
2018-06-02T05:48:05.769Z,979.19
2018-06-02T05:49:05.293Z,979.19
2018-06-02T05:50:05.977Z,979.16
2018-06-02T05:51:06.115Z,979.16
2018-06-02T05:52:05.265Z,979.19
2018-06-02T05:53:05.575Z,979.10
2018-06-02T05:54:05.294Z,979.16
2018-06-02T05:55:05.910Z,979.28
2018-06-02T05:56:05.166Z,979.16
2018-06-02T05:57:05.751Z,979.22
2018-06-02T05:58:05.898Z,979.23
2018-06-02T05:59:05.562Z,979.26
2018-06-02T06:00:05.589Z,979.14
2018-06-02T06:01:05.642Z,979.20
2018-06-02T06:02:05.611Z,979.20
2018-06-02T06:03:05.330Z,979.20
2018-06-02T06:04:05.763Z,979.03
2018-06-02T06:05:05.548Z,979.23
2018-06-02T06:06:05.083Z,979.26
2018-06-02T06:07:05.620Z,979.14
2018-06-02T06:08:06.585Z,979.17
2018-06-02T06:09:05.213Z,979.12
2018-06-02T06:10:05.353Z,979.12
2018-06-02T06:11:05.347Z,979.06
2018-06-02T06:12:06.420Z,979.26
2018-06-02T06:13:05.931Z,979.17
2018-06-02T06:14:10.459Z,979.29
2018-06-02T06:15:06.017Z,979.26
2018-06-02T06:16:05.800Z,979.17
2018-06-02T06:17:05.156Z,979.14
2018-06-02T06:18:05.032Z,979.23
2018-06-02T06:19:05.493Z,979.17
2018-06-02T06:20:05.551Z,979.17
2018-06-02T06:21:05.294Z,979.19
2018-06-02T06:22:05.559Z,979.16
2018-06-02T06:23:05.154Z,979.13
2018-06-02T06:24:05.261Z,979.08
2018-06-02T06:25:05.200Z,979.19
2018-06-02T06:26:05.877Z,979.13
2018-06-02T06:27:05.389Z,979.16
2018-06-02T06:28:05.703Z,979.19
2018-06-02T06:29:05.558Z,979.22
2018-06-02T06:30:05.239Z,979.33
2018-06-02T06:31:05.910Z,979.22
2018-06-02T06:32:05.450Z,979.13
2018-06-02T06:33:05.664Z,979.16
2018-06-02T06:34:05.010Z,979.24
2018-06-02T06:35:05.104Z,979.36
2018-06-02T06:36:05.346Z,979.27
2018-06-02T06:37:05.351Z,979.19
2018-06-02T06:38:05.060Z,979.16
2018-06-02T06:39:05.401Z,979.30
2018-06-02T06:40:06.673Z,979.19
2018-06-02T06:41:05.617Z,979.24
2018-06-02T06:42:05.794Z,979.24
2018-06-02T06:43:05.627Z,979.33
2018-06-02T06:44:05.890Z,979.15
2018-06-02T06:45:05.455Z,979.21
2018-06-02T06:46:05.082Z,979.33
2018-06-02T06:47:05.298Z,979.21
2018-06-02T06:48:05.247Z,979.32
2018-06-02T06:49:05.514Z,979.29
2018-06-02T06:50:05.485Z,979.31
2018-06-02T06:51:05.131Z,979.34
2018-06-02T06:52:05.105Z,979.31
2018-06-02T06:53:05.872Z,979.43
2018-06-02T06:54:06.059Z,979.25
2018-06-02T06:55:06.319Z,979.28
2018-06-02T06:56:05.327Z,979.34
2018-06-02T06:57:05.606Z,979.16
2018-06-02T06:58:05.575Z,979.31
2018-06-02T06:59:05.578Z,979.28
2018-06-02T07:00:05.317Z,979.28
2018-06-02T07:01:05.973Z,979.22
2018-06-02T07:02:05.912Z,979.39
2018-06-02T07:03:06.168Z,979.27
2018-06-02T07:04:05.189Z,979.36
2018-06-02T07:05:06.531Z,979.51
2018-06-02T07:06:05.971Z,979.28
2018-06-02T07:07:05.272Z,979.31
2018-06-02T07:08:06.350Z,979.22
2018-06-02T07:09:05.834Z,979.34
2018-06-02T07:10:05.912Z,979.34
2018-06-02T07:11:05.081Z,979.45
2018-06-02T07:12:05.376Z,979.45
2018-06-02T07:13:05.960Z,979.37
2018-06-02T07:14:05.213Z,979.25
2018-06-02T07:15:06.065Z,979.34
2018-06-02T07:16:06.621Z,979.28
2018-06-02T07:17:05.415Z,979.34
2018-06-02T07:18:05.810Z,979.37
2018-06-02T07:19:05.506Z,979.31
2018-06-02T07:20:05.725Z,979.31
2018-06-02T07:21:05.368Z,979.32
2018-06-02T07:22:05.321Z,979.43
2018-06-02T07:23:04.990Z,979.23
2018-06-02T07:24:05.295Z,979.26
2018-06-02T07:25:05.959Z,979.35
2018-06-02T07:26:11.274Z,979.35
2018-06-02T07:27:05.384Z,979.40
2018-06-02T07:28:05.476Z,979.32
2018-06-02T07:29:05.578Z,979.40
2018-06-02T07:30:05.407Z,979.34
2018-06-02T07:31:05.503Z,979.40
2018-06-02T07:32:06.076Z,979.40
2018-06-02T07:33:05.601Z,979.37
2018-06-02T07:34:05.639Z,979.40
2018-06-02T07:35:05.239Z,979.40
2018-06-02T07:36:05.398Z,979.37
2018-06-02T07:37:05.123Z,979.35
2018-06-02T07:38:05.731Z,979.43
2018-06-02T07:39:05.916Z,979.35
2018-06-02T07:40:05.914Z,979.34
2018-06-02T07:41:06.567Z,979.35
2018-06-02T07:42:05.594Z,979.34
2018-06-02T07:43:05.331Z,979.43
2018-06-02T07:44:05.250Z,979.37
2018-06-02T07:45:05.671Z,979.31
2018-06-02T07:46:05.466Z,979.49
2018-06-02T07:47:05.100Z,979.52
2018-06-02T07:48:05.790Z,979.40
2018-06-02T07:49:05.763Z,979.43
2018-06-02T07:50:05.443Z,979.46
2018-06-02T07:51:05.285Z,979.40
2018-06-02T07:52:05.408Z,979.43
2018-06-02T07:53:05.470Z,979.40
2018-06-02T07:54:05.530Z,979.49
2018-06-02T07:55:05.487Z,979.46
2018-06-02T07:56:05.626Z,979.52
2018-06-02T07:57:05.296Z,979.40
2018-06-02T07:58:05.954Z,979.52
2018-06-02T07:59:05.818Z,979.43
2018-06-02T08:00:05.349Z,979.43
2018-06-02T08:01:05.595Z,979.46
2018-06-02T08:02:05.303Z,979.55
2018-06-02T08:03:06.324Z,979.49
2018-06-02T08:04:05.520Z,979.40
2018-06-02T08:05:05.985Z,979.58
2018-06-02T08:06:05.895Z,979.55
2018-06-02T08:07:06.099Z,979.46
2018-06-02T08:08:06.037Z,979.49
2018-06-02T08:09:05.253Z,979.43
2018-06-02T08:10:05.117Z,979.46
2018-06-02T08:11:05.271Z,979.37
2018-06-02T08:12:05.695Z,979.37
2018-06-02T08:13:05.236Z,979.55
2018-06-02T08:14:04.995Z,979.37
2018-06-02T08:15:05.190Z,979.43
2018-06-02T08:16:05.233Z,979.31
2018-06-02T08:17:06.293Z,979.40
2018-06-02T08:18:05.392Z,979.37
2018-06-02T08:19:05.118Z,979.45
2018-06-02T08:20:05.279Z,979.45
2018-06-02T08:21:05.295Z,979.48
2018-06-02T08:22:05.663Z,979.54
2018-06-02T08:23:05.479Z,979.45
2018-06-02T08:24:05.092Z,979.39
2018-06-02T08:25:05.917Z,979.56
2018-06-02T08:26:05.230Z,979.39
2018-06-02T08:27:05.296Z,979.36
2018-06-02T08:28:05.137Z,979.33
2018-06-02T08:29:05.414Z,979.35
2018-06-02T08:30:05.226Z,979.41
2018-06-02T08:31:05.945Z,979.41
2018-06-02T08:32:05.944Z,979.23
2018-06-02T08:33:05.892Z,979.43
2018-06-02T08:34:05.012Z,979.37
2018-06-02T08:35:05.095Z,979.37
2018-06-02T08:36:06.009Z,979.48
2018-06-02T08:37:05.530Z,979.33
2018-06-02T08:38:05.605Z,979.48
2018-06-02T08:39:05.608Z,979.54
2018-06-02T08:40:05.359Z,979.53
2018-06-02T08:41:05.522Z,979.50
2018-06-02T08:42:05.567Z,979.56
2018-06-02T08:43:05.714Z,979.53
2018-06-02T08:44:06.035Z,979.58
2018-06-02T08:45:05.740Z,979.58
2018-06-02T08:46:05.808Z,979.46
2018-06-02T08:47:07.049Z,979.58
2018-06-02T08:48:05.151Z,979.57
2018-06-02T08:49:05.444Z,979.60
2018-06-02T08:50:05.640Z,979.45
2018-06-02T08:51:05.357Z,979.33
2018-06-02T08:52:05.300Z,979.47
2018-06-02T08:53:05.103Z,979.56
2018-06-02T08:54:05.469Z,979.55
2018-06-02T08:55:06.053Z,979.46
2018-06-02T08:56:05.604Z,979.49
2018-06-02T08:57:05.491Z,979.55
2018-06-02T08:58:05.106Z,979.37
2018-06-02T08:59:05.349Z,979.57
2018-06-02T09:00:05.544Z,979.54
2018-06-02T09:01:05.823Z,979.51
2018-06-02T09:02:05.911Z,979.54
2018-06-02T09:03:05.258Z,979.51
2018-06-02T09:04:05.946Z,979.51
2018-06-02T09:05:06.014Z,979.50
2018-06-02T09:06:05.590Z,979.36
2018-06-02T09:07:05.510Z,979.45
2018-06-02T09:08:05.865Z,979.36
2018-06-02T09:09:05.541Z,979.48
2018-06-02T09:10:05.811Z,979.45
2018-06-02T09:11:05.629Z,979.45
2018-06-02T09:12:05.123Z,979.57
2018-06-02T09:13:04.946Z,979.42
2018-06-02T09:14:05.383Z,979.48
2018-06-02T09:15:05.655Z,979.57
2018-06-02T09:16:06.056Z,979.28
2018-06-02T09:17:05.606Z,979.42
2018-06-02T09:18:05.896Z,979.39
2018-06-02T09:19:05.163Z,979.51
2018-06-02T09:20:05.441Z,979.54
2018-06-02T09:21:06.054Z,979.42
2018-06-02T09:22:05.655Z,979.48
2018-06-02T09:23:05.254Z,979.60
2018-06-02T09:24:05.314Z,979.42
2018-06-02T09:25:05.404Z,979.63
2018-06-02T09:26:05.420Z,979.69
2018-06-02T09:27:05.192Z,979.69
2018-06-02T09:28:05.894Z,979.60
2018-06-02T09:29:05.144Z,979.54
2018-06-02T09:30:05.066Z,979.63
2018-06-02T09:31:05.420Z,979.67
2018-06-02T09:32:05.132Z,979.55
2018-06-02T09:33:05.653Z,979.73
2018-06-02T09:34:05.954Z,979.65
2018-06-02T09:35:06.559Z,979.79
2018-06-02T09:36:10.232Z,979.62
2018-06-02T09:37:05.679Z,979.68
2018-06-02T09:38:05.844Z,979.74
2018-06-02T09:39:05.207Z,979.83
2018-06-02T09:40:05.360Z,979.89
2018-06-02T09:41:06.010Z,979.78
2018-06-02T09:42:06.009Z,979.81
2018-06-02T09:43:06.031Z,979.73
2018-06-02T09:44:05.649Z,979.73
2018-06-02T09:45:05.879Z,979.90
2018-06-02T09:46:06.848Z,979.93
2018-06-02T09:47:05.881Z,979.83
2018-06-02T09:48:05.211Z,979.90
2018-06-02T09:49:05.896Z,980.02
2018-06-02T09:50:05.382Z,979.97
2018-06-02T09:51:05.813Z,979.86
2018-06-02T09:52:05.358Z,979.94
2018-06-02T09:53:05.349Z,980.06
2018-06-02T09:54:06.173Z,979.91
2018-06-02T09:55:06.080Z,979.92
2018-06-02T09:56:06.077Z,979.95
2018-06-02T09:57:05.831Z,979.86
2018-06-02T09:58:05.367Z,979.92
2018-06-02T09:59:05.329Z,979.89
2018-06-02T10:00:05.200Z,979.81
2018-06-02T10:01:05.783Z,979.79
2018-06-02T10:02:05.359Z,979.89
2018-06-02T10:03:05.753Z,979.93
2018-06-02T10:04:05.409Z,979.82
2018-06-02T10:05:05.548Z,979.93
2018-06-02T10:06:05.603Z,979.85
2018-06-02T10:07:05.246Z,979.87
2018-06-02T10:08:05.248Z,979.99
2018-06-02T10:09:05.152Z,979.99
2018-06-02T10:10:06.040Z,980.10
2018-06-02T10:11:05.749Z,979.90
2018-06-02T10:12:05.392Z,979.85
2018-06-02T10:13:05.701Z,979.93
2018-06-02T10:14:05.633Z,979.93
2018-06-02T10:15:07.007Z,979.87
2018-06-02T10:16:05.152Z,979.96
2018-06-02T10:17:06.131Z,980.11
2018-06-02T10:18:04.988Z,979.96
2018-06-02T10:19:05.337Z,980.05
2018-06-02T10:20:05.455Z,980.05
2018-06-02T10:21:05.487Z,980.02
2018-06-02T10:22:05.542Z,980.02
2018-06-02T10:23:05.591Z,979.99
2018-06-02T10:24:06.092Z,979.94
2018-06-02T10:25:05.788Z,980.02
2018-06-02T10:26:05.437Z,980.08
2018-06-02T10:27:06.281Z,980.02
2018-06-02T10:28:05.326Z,980.00
2018-06-02T10:29:05.701Z,980.08
2018-06-02T10:30:05.617Z,980.02
2018-06-02T10:31:05.363Z,980.00
2018-06-02T10:32:05.536Z,980.03
2018-06-02T10:33:05.096Z,980.22
2018-06-02T10:34:05.646Z,980.11
2018-06-02T10:35:05.368Z,980.14
2018-06-02T10:36:06.188Z,980.14
2018-06-02T10:37:05.193Z,980.03
2018-06-02T10:38:05.180Z,980.25
2018-06-02T10:39:06.057Z,980.09
2018-06-02T10:40:06.453Z,980.09
2018-06-02T10:41:05.076Z,980.03
2018-06-02T10:42:05.609Z,980.15
2018-06-02T10:43:05.759Z,980.03
2018-06-02T10:44:05.768Z,980.06
2018-06-02T10:45:05.411Z,980.29
2018-06-02T10:46:05.346Z,980.15
2018-06-02T10:47:05.325Z,980.23
2018-06-02T10:48:05.148Z,980.15
2018-06-02T10:49:05.303Z,980.12
2018-06-02T10:50:05.633Z,980.15
2018-06-02T10:51:05.299Z,980.13
2018-06-02T10:52:05.197Z,980.29
2018-06-02T10:53:05.572Z,980.13
2018-06-02T10:54:10.802Z,980.16
2018-06-02T10:55:06.032Z,980.35
2018-06-02T10:56:05.681Z,980.36
2018-06-02T10:57:05.560Z,980.30
2018-06-02T10:58:05.640Z,980.13
2018-06-02T10:59:05.448Z,980.21
2018-06-02T11:00:05.630Z,980.27
2018-06-02T11:01:05.272Z,980.27
2018-06-02T11:02:06.358Z,980.08
2018-06-02T11:03:05.940Z,980.25
2018-06-02T11:04:06.174Z,980.28
2018-06-02T11:05:06.123Z,980.36
2018-06-02T11:06:06.545Z,980.22
2018-06-02T11:07:05.792Z,980.30
2018-06-02T11:08:06.821Z,980.17
2018-06-02T11:09:06.029Z,980.31
2018-06-02T11:10:06.022Z,980.25
2018-06-02T11:11:05.120Z,980.22
2018-06-02T11:12:05.274Z,980.28
2018-06-02T11:13:05.979Z,980.28
2018-06-02T11:14:06.152Z,980.25
2018-06-02T11:15:05.960Z,980.22
2018-06-02T11:16:05.617Z,980.25
2018-06-02T11:17:05.656Z,980.30
2018-06-02T11:18:05.892Z,980.36
2018-06-02T11:19:06.041Z,980.24
2018-06-02T11:20:05.137Z,980.21
2018-06-02T11:21:05.349Z,980.14
2018-06-02T11:22:10.500Z,980.21
2018-06-02T11:23:05.458Z,980.27
2018-06-02T11:24:05.176Z,980.30
2018-06-02T11:25:05.253Z,980.27
2018-06-02T11:26:05.777Z,980.30
2018-06-02T11:27:05.696Z,980.36
2018-06-02T11:28:05.360Z,980.33
2018-06-02T11:29:05.968Z,980.39
2018-06-02T11:30:10.713Z,980.27
2018-06-02T11:31:05.934Z,980.27
2018-06-02T11:32:05.356Z,980.35
2018-06-02T11:33:05.449Z,980.24
2018-06-02T11:34:05.742Z,980.24
2018-06-02T11:35:05.340Z,980.41
2018-06-02T11:36:05.760Z,980.27
2018-06-02T11:37:10.481Z,980.24
2018-06-02T11:38:05.284Z,980.21
2018-06-02T11:39:05.605Z,980.26
2018-06-02T11:40:05.911Z,980.21
2018-06-02T11:41:05.442Z,980.35
2018-06-02T11:42:05.217Z,980.29
2018-06-02T11:43:05.111Z,980.10
2018-06-02T11:44:10.252Z,980.26
2018-06-02T11:45:05.643Z,980.12
2018-06-02T11:46:10.459Z,980.18
2018-06-02T11:47:05.838Z,980.32
2018-06-02T11:48:06.048Z,980.15
2018-06-02T11:49:06.016Z,980.23
2018-06-02T11:50:05.141Z,980.06
2018-06-02T11:51:06.027Z,980.18
2018-06-02T11:52:05.661Z,980.18
2018-06-02T11:53:05.184Z,980.15
2018-06-02T11:54:05.337Z,980.32
2018-06-02T11:55:10.426Z,980.10
2018-06-02T11:56:05.643Z,980.26
2018-06-02T11:57:05.876Z,980.24
2018-06-02T11:58:05.721Z,980.41
2018-06-02T11:59:05.966Z,980.16
2018-06-02T12:00:06.252Z,980.16
2018-06-02T12:01:06.121Z,980.24
2018-06-02T12:02:05.838Z,980.24
2018-06-02T12:03:05.933Z,980.24
2018-06-02T12:04:06.057Z,980.13
2018-06-02T12:05:04.963Z,980.21
2018-06-02T12:06:05.162Z,980.23
2018-06-02T12:07:05.811Z,980.09
2018-06-02T12:08:05.694Z,980.12
2018-06-02T12:09:05.467Z,980.09
2018-06-02T12:10:05.292Z,980.09
2018-06-02T12:11:05.516Z,980.17
2018-06-02T12:12:05.390Z,980.05
2018-06-02T12:13:05.038Z,979.96
2018-06-02T12:14:05.056Z,979.96
2018-06-02T12:15:05.722Z,980.21
2018-06-02T12:16:06.033Z,980.07
2018-06-02T12:17:05.258Z,980.03
2018-06-02T12:18:05.876Z,980.03
2018-06-02T12:19:05.159Z,980.03
2018-06-02T12:20:05.485Z,980.14
2018-06-02T12:21:05.318Z,980.17
2018-06-02T12:22:05.491Z,980.05
2018-06-02T12:23:05.643Z,979.90
2018-06-02T12:24:10.568Z,979.87
2018-06-02T12:25:05.731Z,979.87
2018-06-02T12:26:05.447Z,979.98
2018-06-02T12:27:06.755Z,979.86
2018-06-02T12:28:08.721Z,979.98